createdAt,value
2022-08-18T00:01:14.792Z,8.73
2022-08-18T00:03:56.899Z,8.93
2022-08-18T00:06:30.942Z,9.07
2022-08-18T00:09:01.234Z,9.07
2022-08-18T00:11:41.605Z,9.23
2022-08-18T00:14:22.624Z,9.60
2022-08-18T00:16:56.641Z,9.77
2022-08-18T00:19:46.802Z,9.33
2022-08-18T00:22:16.427Z,9.37
2022-08-18T00:24:49.081Z,9.23
2022-08-18T00:27:23.221Z,9.27
2022-08-18T00:29:53.801Z,9.43
2022-08-18T00:32:42.434Z,9.63
2022-08-18T00:35:28.983Z,10.07
2022-08-18T00:38:00.635Z,9.93
2022-08-18T00:40:52.117Z,10.47
2022-08-18T00:43:35.678Z,10.63
2022-08-18T00:46:06.289Z,10.37
2022-08-18T00:48:33.830Z,10.30
2022-08-18T00:51:13.246Z,10.37
2022-08-18T00:53:47.727Z,10.17
2022-08-18T00:56:27.266Z,10.27
2022-08-18T00:59:00.251Z,10.47
2022-08-18T01:01:31.600Z,10.40
2022-08-18T01:04:27.155Z,10.93
2022-08-18T01:07:04.667Z,10.43
2022-08-18T01:09:33.963Z,11.27
2022-08-18T01:12:01.669Z,11.07
2022-08-18T01:14:49.229Z,11.37
2022-08-18T01:17:35.226Z,10.97
2022-08-18T01:20:21.597Z,11.43
2022-08-18T01:22:58.123Z,11.47
2022-08-18T01:25:44.414Z,10.83
2022-08-18T01:28:11.924Z,10.87
2022-08-18T01:30:56.180Z,10.70
2022-08-18T01:33:30.209Z,11.87
2022-08-18T01:36:03.691Z,11.07
2022-08-18T01:38:34.237Z,11.40
2022-08-18T01:41:28.849Z,10.87
2022-08-18T01:43:50.363Z,10.60
2022-08-18T01:46:22.333Z,11.23
2022-08-18T01:48:51.505Z,12.10
2022-08-18T01:51:20.718Z,10.93
2022-08-18T01:54:07.863Z,11.80
2022-08-18T01:56:36.825Z,11.53
2022-08-18T01:59:06.428Z,11.50
2022-08-18T02:01:48.425Z,11.00
2022-08-18T02:04:35.051Z,11.73
2022-08-18T02:07:12.816Z,11.40
2022-08-18T02:09:43.733Z,12.00
2022-08-18T02:12:11.587Z,11.30
2022-08-18T02:14:43.168Z,11.47
2022-08-18T02:17:13.136Z,11.20
2022-08-18T02:19:44.901Z,11.53
2022-08-18T02:22:18.274Z,11.73
2022-08-18T02:24:46.720Z,11.23
2022-08-18T02:27:16.308Z,11.63
2022-08-18T02:29:44.111Z,11.47
2022-08-18T02:32:11.670Z,11.13
2022-08-18T02:34:39.263Z,11.33
2022-08-18T02:37:06.732Z,11.23
2022-08-18T02:39:38.084Z,11.67
2022-08-18T02:42:09.251Z,11.63
2022-08-18T02:44:36.910Z,11.77
2022-08-18T02:47:04.610Z,11.73
2022-08-18T02:49:32.288Z,11.53
2022-08-18T02:51:59.878Z,12.00
2022-08-18T02:54:26.976Z,12.27
2022-08-18T02:56:54.534Z,11.53
2022-08-18T02:59:26.773Z,12.10
2022-08-18T03:01:56.976Z,11.47
2022-08-18T03:04:30.439Z,11.47
2022-08-18T03:07:02.435Z,11.27
2022-08-18T03:09:30.780Z,11.43
2022-08-18T03:11:58.915Z,11.77
2022-08-18T03:14:27.260Z,12.00
2022-08-18T03:16:55.473Z,11.80
2022-08-18T03:19:28.973Z,11.93
2022-08-18T03:21:59.460Z,11.87
2022-08-18T03:24:32.609Z,12.80
2022-08-18T03:27:01.736Z,12.20
2022-08-18T03:29:32.389Z,12.60
2022-08-18T03:32:01.886Z,12.10
2022-08-18T03:34:30.003Z,12.03
2022-08-18T03:36:57.471Z,12.83
2022-08-18T03:39:27.189Z,11.90
2022-08-18T03:41:59.131Z,12.17
2022-08-18T03:44:37.167Z,11.63
2022-08-18T03:47:09.588Z,24.17
2022-08-18T03:49:39.014Z,13.93
2022-08-18T03:52:10.291Z,11.60
2022-08-18T03:54:39.297Z,12.40
2022-08-18T03:57:11.120Z,11.67
2022-08-18T03:59:41.790Z,12.57
2022-08-18T04:02:10.278Z,12.90
2022-08-18T04:04:38.633Z,12.80
2022-08-18T04:07:14.574Z,14.37
2022-08-18T04:09:43.908Z,12.40
2022-08-18T04:12:16.732Z,12.37
2022-08-18T04:14:50.140Z,10.97
2022-08-18T04:17:25.929Z,11.90
2022-08-18T04:19:55.462Z,11.47
2022-08-18T04:22:25.127Z,11.43
2022-08-18T04:24:53.338Z,12.17
2022-08-18T04:27:22.929Z,11.40
2022-08-18T04:29:50.693Z,11.23
2022-08-18T04:32:19.504Z,11.20
2022-08-18T04:34:47.005Z,11.47
2022-08-18T04:37:15.615Z,10.73
2022-08-18T04:39:45.104Z,10.63
2022-08-18T04:42:13.917Z,10.73
2022-08-18T04:44:45.107Z,10.47
2022-08-18T04:47:13.439Z,10.63
2022-08-18T04:49:40.976Z,10.53
2022-08-18T04:52:40.320Z,11.20
2022-08-18T04:55:11.771Z,10.87
2022-08-18T04:57:40.140Z,10.23
2022-08-18T05:00:12.541Z,9.90
2022-08-18T05:02:41.044Z,10.80
2022-08-18T05:05:08.804Z,10.10
2022-08-18T05:07:36.337Z,9.43
2022-08-18T05:10:05.028Z,10.67
2022-08-18T05:12:32.627Z,10.17
2022-08-18T05:15:00.347Z,10.20
2022-08-18T05:17:30.598Z,10.13
2022-08-18T05:20:01.455Z,10.27
2022-08-18T05:22:31.718Z,9.87
2022-08-18T05:25:00.524Z,9.73
2022-08-18T05:27:40.411Z,9.80
2022-08-18T05:30:09.919Z,9.90
2022-08-18T05:32:48.520Z,10.47
2022-08-18T05:35:36.519Z,9.00
2022-08-18T05:38:24.686Z,10.00
2022-08-18T05:41:08.192Z,9.87
2022-08-18T05:43:51.077Z,9.47
2022-08-18T05:46:27.002Z,10.13
2022-08-18T05:48:54.503Z,9.27
2022-08-18T05:51:34.177Z,9.97
2022-08-18T05:54:23.613Z,9.57
2022-08-18T05:56:56.113Z,9.67
2022-08-18T05:59:40.530Z,9.37
2022-08-18T06:02:18.449Z,9.60
2022-08-18T06:05:00.139Z,9.23
2022-08-18T06:07:41.010Z,9.00
2022-08-18T06:10:09.902Z,9.90
2022-08-18T06:12:54.231Z,9.30
2022-08-18T06:15:33.390Z,9.60
2022-08-18T06:18:47.024Z,8.80
2022-08-18T06:21:39.968Z,9.50
2022-08-18T06:24:12.143Z,9.10
2022-08-18T06:27:12.045Z,9.43
2022-08-18T06:30:07.718Z,9.47
2022-08-18T06:32:53.125Z,9.60
2022-08-18T06:35:52.050Z,9.37
2022-08-18T06:39:03.351Z,9.70
2022-08-18T06:41:48.768Z,9.10
2022-08-18T06:44:29.685Z,9.30
2022-08-18T06:47:32.830Z,9.80
2022-08-18T06:50:08.394Z,8.57
2022-08-18T06:52:40.211Z,8.63
2022-08-18T06:55:18.119Z,8.70
2022-08-18T06:57:58.508Z,8.90
2022-08-18T07:00:32.456Z,9.43
2022-08-18T07:03:17.920Z,9.17
2022-08-18T07:06:08.358Z,9.30
2022-08-18T07:08:46.214Z,9.37
2022-08-18T07:11:33.435Z,8.70
2022-08-18T07:14:23.242Z,8.77
2022-08-18T07:17:00.076Z,8.93
2022-08-18T07:19:32.211Z,8.85
2022-08-18T07:22:05.017Z,8.30
2022-08-18T07:24:42.837Z,8.57
2022-08-18T07:27:45.097Z,8.65
2022-08-18T07:30:19.379Z,8.27
2022-08-18T07:33:27.358Z,8.32
2022-08-18T07:36:07.207Z,8.67
2022-08-18T07:38:53.474Z,8.13
2022-08-18T07:41:57.444Z,8.63
2022-08-18T07:44:44.378Z,8.05
2022-08-18T07:47:27.190Z,8.32
2022-08-18T07:50:18.317Z,8.48
2022-08-18T07:53:03.627Z,8.15
2022-08-18T07:55:36.462Z,8.48
2022-08-18T07:58:30.907Z,7.55
2022-08-18T08:01:23.671Z,8.63
2022-08-18T08:04:29.369Z,8.02
2022-08-18T08:07:26.557Z,8.20
2022-08-18T08:10:45.064Z,8.20
2022-08-18T08:13:56.374Z,7.85
2022-08-18T08:16:57.875Z,7.80
2022-08-18T08:20:04.197Z,7.93
2022-08-18T08:22:38.859Z,8.02
2022-08-18T08:25:45.019Z,7.68
2022-08-18T08:28:40.670Z,7.90
2022-08-18T08:31:33.140Z,7.10
2022-08-18T08:34:14.225Z,7.47
2022-08-18T08:36:46.742Z,7.38
2022-08-18T08:39:45.349Z,7.35
2022-08-18T08:42:51.065Z,7.22
2022-08-18T08:45:33.440Z,7.20
2022-08-18T08:48:17.944Z,7.50
2022-08-18T08:50:50.974Z,6.85
2022-08-18T08:53:38.678Z,7.35
2022-08-18T08:56:16.770Z,7.07
2022-08-18T08:58:52.768Z,7.07
2022-08-18T09:02:02.122Z,7.60
2022-08-18T09:05:08.842Z,7.60
2022-08-18T09:08:13.523Z,6.85
2022-08-18T09:10:46.330Z,7.80
2022-08-18T09:13:52.063Z,8.57
2022-08-18T09:16:36.873Z,8.30
2022-08-18T09:19:31.019Z,7.20
2022-08-18T09:22:20.114Z,7.47
2022-08-18T09:24:53.266Z,6.80
2022-08-18T09:27:23.395Z,6.53
2022-08-18T09:29:59.174Z,6.82
2022-08-18T09:32:26.276Z,6.47
2022-08-18T09:35:23.806Z,6.20
2022-08-18T09:38:21.362Z,6.72
2022-08-18T09:41:22.971Z,6.40
2022-08-18T09:44:21.282Z,7.20
2022-08-18T09:47:02.728Z,6.60
2022-08-18T09:49:30.584Z,6.38
2022-08-18T09:52:26.989Z,6.32
2022-08-18T09:55:06.402Z,6.20
2022-08-18T09:57:42.317Z,6.32
2022-08-18T10:00:14.609Z,6.07
2022-08-18T10:02:45.660Z,6.25
2022-08-18T10:05:20.064Z,6.20
2022-08-18T10:07:48.946Z,6.43
2022-08-18T10:13:52.509Z,5.97
2022-08-18T10:17:21.795Z,6.30
2022-08-18T10:20:29.469Z,6.40
2022-08-18T10:22:57.515Z,5.97
2022-08-18T10:25:47.293Z,6.30
2022-08-18T10:28:53.391Z,6.32
2022-08-18T10:31:24.153Z,5.50
2022-08-18T10:34:17.124Z,4.72
2022-08-18T10:37:00.568Z,4.50
2022-08-18T10:39:41.185Z,5.13
2022-08-18T10:42:37.431Z,5.40
2022-08-18T10:45:30.409Z,5.17
2022-08-18T10:48:26.772Z,5.27
2022-08-18T10:51:37.784Z,5.50
2022-08-18T10:54:54.019Z,4.80
2022-08-18T10:57:52.704Z,4.57
2022-08-18T11:00:22.650Z,4.50
2022-08-18T11:06:14.469Z,4.20
2022-08-18T11:11:52.588Z,5.00
2022-08-18T11:14:41.990Z,5.15
2022-08-18T11:17:42.860Z,5.00
2022-08-18T11:20:18.166Z,4.40
2022-08-18T11:23:00.439Z,4.07
2022-08-18T11:25:34.837Z,4.40
2022-08-18T11:28:03.386Z,3.60
2022-08-18T11:30:40.984Z,4.20
2022-08-18T11:33:23.014Z,4.20
2022-08-18T11:35:58.497Z,4.27
2022-08-18T11:38:29.550Z,4.13
2022-08-18T11:41:20.474Z,3.87
2022-08-18T11:43:50.569Z,3.70
2022-08-18T11:46:28.190Z,3.77
2022-08-18T11:49:33.404Z,4.00
2022-08-18T11:52:19.798Z,4.63
2022-08-18T11:55:16.760Z,5.03
2022-08-18T11:57:58.986Z,4.90
2022-08-18T12:00:44.492Z,5.20
2022-08-18T12:03:17.409Z,4.67
2022-08-18T12:05:55.723Z,4.07
2022-08-18T12:08:54.546Z,4.70
2022-08-18T12:11:27.375Z,4.30
2022-08-18T12:14:29.688Z,4.43
2022-08-18T12:19:48.313Z,5.77
2022-08-18T12:22:23.899Z,6.00
2022-08-18T12:24:52.474Z,5.80
2022-08-18T12:27:25.411Z,5.53
2022-08-18T12:30:01.811Z,5.07
2022-08-18T12:32:46.855Z,4.60
2022-08-18T12:35:22.407Z,4.70
2022-08-18T12:38:13.231Z,4.70
2022-08-18T12:40:38.158Z,4.60
2022-08-18T12:43:06.420Z,5.03
2022-08-18T12:48:22.691Z,5.13
2022-08-18T12:50:55.544Z,5.33
2022-08-18T12:53:59.430Z,5.53
2022-08-18T12:56:31.110Z,5.63
2022-08-18T12:59:04.302Z,5.43
2022-08-18T13:01:34.209Z,5.50
2022-08-18T13:04:13.107Z,5.60
2022-08-18T13:07:01.093Z,5.50
2022-08-18T13:09:53.223Z,5.80
2022-08-18T13:12:22.214Z,5.80
2022-08-18T13:14:52.583Z,5.50
2022-08-18T13:17:33.104Z,5.23
2022-08-18T13:20:05.742Z,5.40
2022-08-18T13:22:33.481Z,5.47
2022-08-18T13:25:07.506Z,5.43
2022-08-18T13:27:37.370Z,5.33
2022-08-18T13:30:29.198Z,5.33
2022-08-18T13:32:59.389Z,5.57
2022-08-18T13:35:35.292Z,5.80
2022-08-18T13:38:15.837Z,5.07
2022-08-18T13:40:54.435Z,5.97
2022-08-18T13:43:30.648Z,6.00
2022-08-18T13:45:58.523Z,5.37
2022-08-18T13:48:26.104Z,5.40
2022-08-18T13:50:56.664Z,5.50
2022-08-18T13:53:26.285Z,5.30
2022-08-18T13:55:58.496Z,5.27
2022-08-18T13:58:27.632Z,5.40
2022-08-18T14:01:39.816Z,5.53
2022-08-18T14:03:50.865Z,5.00
2022-08-18T14:06:22.796Z,5.73
2022-08-18T14:08:53.834Z,5.43
2022-08-18T14:11:32.796Z,5.33
2022-08-18T14:14:02.161Z,5.33
2022-08-18T14:16:30.825Z,5.37
2022-08-18T14:19:17.837Z,5.50
2022-08-18T14:22:11.162Z,5.30
2022-08-18T14:25:00.782Z,5.27
2022-08-18T14:27:35.791Z,5.90
2022-08-18T14:30:11.260Z,5.50
2022-08-18T14:32:42.104Z,5.10
2022-08-18T14:35:33.798Z,5.90
2022-08-18T14:38:10.033Z,6.50
2022-08-18T14:40:41.686Z,6.10
2022-08-18T14:43:14.599Z,6.50
2022-08-18T14:45:48.859Z,7.90
2022-08-18T14:48:27.471Z,6.23
2022-08-18T14:50:56.734Z,5.30
2022-08-18T14:53:28.873Z,5.27
2022-08-18T14:55:57.670Z,5.27
2022-08-18T14:58:30.803Z,5.20
2022-08-18T15:01:17.763Z,5.70
2022-08-18T15:03:45.489Z,5.97
2022-08-18T15:06:13.092Z,5.50
2022-08-18T15:08:47.149Z,5.77
2022-08-18T15:11:14.373Z,5.77
2022-08-18T15:13:45.303Z,6.03
2022-08-18T15:16:16.231Z,5.50
2022-08-18T15:18:45.664Z,5.17
2022-08-18T15:21:34.995Z,6.53
2022-08-18T15:24:25.271Z,5.50
2022-08-18T15:26:57.709Z,5.30
2022-08-18T15:29:30.834Z,6.00
2022-08-18T15:32:06.150Z,6.10
2022-08-18T15:34:46.455Z,10.90
2022-08-18T15:37:19.389Z,6.93
2022-08-18T15:39:55.631Z,5.30
2022-08-18T15:42:24.159Z,5.70
2022-08-18T15:44:53.683Z,5.50
2022-08-18T15:47:25.336Z,9.40
2022-08-18T15:49:54.839Z,5.50
2022-08-18T15:52:25.911Z,5.23
2022-08-18T15:54:58.385Z,5.50
2022-08-18T15:57:39.066Z,5.20
2022-08-18T16:00:12.065Z,5.40
2022-08-18T16:02:44.589Z,5.57
2022-08-18T16:05:17.988Z,5.73
2022-08-18T16:07:47.775Z,5.10
2022-08-18T16:10:19.819Z,5.37
2022-08-18T16:12:47.981Z,5.47
2022-08-18T16:15:22.037Z,6.00
2022-08-18T16:17:53.083Z,5.50
2022-08-18T16:20:26.769Z,5.17
2022-08-18T16:22:54.792Z,6.17
2022-08-18T16:25:22.412Z,5.60
2022-08-18T16:27:50.257Z,6.40
2022-08-18T16:30:23.379Z,5.70
2022-08-18T16:32:52.365Z,5.93
2022-08-18T16:35:22.090Z,5.37
2022-08-18T16:37:51.252Z,5.63
2022-08-18T16:40:21.136Z,5.50
2022-08-18T16:42:53.956Z,5.63
2022-08-18T16:45:23.029Z,5.37
2022-08-18T16:47:50.867Z,4.77
2022-08-18T16:50:19.115Z,5.63
2022-08-18T16:52:46.807Z,9.90
2022-08-18T16:55:14.579Z,10.80
2022-08-18T16:58:02.920Z,9.27
2022-08-18T17:00:54.779Z,5.17
2022-08-18T17:03:42.719Z,5.37
2022-08-18T17:06:15.242Z,5.20
2022-08-18T17:08:44.246Z,5.30
2022-08-18T17:11:17.360Z,5.03
2022-08-18T17:13:46.833Z,18.63
2022-08-18T17:16:15.726Z,7.10
2022-08-18T17:18:44.324Z,6.20
2022-08-18T17:21:17.966Z,5.43
2022-08-18T17:23:46.751Z,5.83
2022-08-18T17:26:56.847Z,5.37
2022-08-18T17:30:01.319Z,5.10
2022-08-18T17:32:31.887Z,6.23
2022-08-18T17:35:13.038Z,6.63
2022-08-18T17:37:53.199Z,6.93
2022-08-18T17:40:48.098Z,5.80
2022-08-18T17:43:26.709Z,7.40
2022-08-18T17:46:27.527Z,6.83
2022-08-18T17:49:16.593Z,5.50
2022-08-18T17:51:52.758Z,5.67
2022-08-18T17:54:37.056Z,6.17
2022-08-18T17:57:10.989Z,6.97
2022-08-18T17:59:54.117Z,9.23
2022-08-18T18:02:29.316Z,6.97
2022-08-18T18:05:09.925Z,6.47
2022-08-18T18:07:40.267Z,5.57
2022-08-18T18:10:51.061Z,6.63
2022-08-18T18:13:32.500Z,5.80
2022-08-18T18:16:35.198Z,5.90
2022-08-18T18:19:07.894Z,6.07
2022-08-18T18:21:55.414Z,6.57
2022-08-18T18:24:32.750Z,6.07
2022-08-18T18:27:00.383Z,6.00
2022-08-18T18:29:38.044Z,6.33
2022-08-18T18:32:28.244Z,6.03
2022-08-18T18:35:30.827Z,6.57
2022-08-18T18:38:23.948Z,6.60
2022-08-18T18:41:05.845Z,6.57
2022-08-18T18:43:44.756Z,6.80
2022-08-18T18:46:35.382Z,6.67
2022-08-18T18:49:08.350Z,7.67
2022-08-18T18:52:19.104Z,7.10
2022-08-18T18:54:55.217Z,7.03
2022-08-18T18:57:48.622Z,7.00
2022-08-18T19:00:35.463Z,6.77
2022-08-18T19:03:25.867Z,6.50
2022-08-18T19:06:26.988Z,6.70
2022-08-18T19:09:17.164Z,6.57
2022-08-18T19:12:03.653Z,7.13
2022-08-18T19:14:57.644Z,7.10
2022-08-18T19:18:00.880Z,7.23
2022-08-18T19:22:02.257Z,7.53
2022-08-18T19:23:45.141Z,7.43
2022-08-18T19:26:27.603Z,7.07
2022-08-18T19:29:13.658Z,7.23
2022-08-18T19:32:15.799Z,7.17
2022-08-18T19:34:52.371Z,7.50
2022-08-18T19:37:46.270Z,7.93
2022-08-18T19:40:31.948Z,6.77
2022-08-18T19:43:29.933Z,7.77
2022-08-18T19:46:10.964Z,6.93
2022-08-18T19:48:39.432Z,7.80
2022-08-18T19:51:19.984Z,7.50
2022-08-18T19:53:52.591Z,6.80
2022-08-18T19:56:34.834Z,7.03
2022-08-18T19:59:35.166Z,6.57
2022-08-18T20:03:04.047Z,8.57
2022-08-18T20:06:33.483Z,6.87
2022-08-18T20:09:07.301Z,6.40
2022-08-18T20:11:41.715Z,8.10
2022-08-18T20:14:17.262Z,6.63
2022-08-18T20:17:14.702Z,6.40
2022-08-18T20:20:04.521Z,6.63
2022-08-18T20:22:42.332Z,6.20
2022-08-18T20:25:30.551Z,6.53
2022-08-18T20:28:00.667Z,6.77
2022-08-18T20:31:04.897Z,6.80
2022-08-18T20:33:47.004Z,6.97
2022-08-18T20:36:30.548Z,7.17
2022-08-18T20:39:01.310Z,6.87
2022-08-18T20:41:47.463Z,6.33
2022-08-18T20:44:30.386Z,6.70
2022-08-18T20:47:43.012Z,6.50
2022-08-18T20:50:37.229Z,6.83
2022-08-18T20:53:50.279Z,6.33
2022-08-18T20:56:43.796Z,6.63
2022-08-18T20:59:20.626Z,7.03
2022-08-18T21:02:05.804Z,6.00
2022-08-18T21:04:47.567Z,6.63
2022-08-18T21:07:37.925Z,6.57
2022-08-18T21:10:12.155Z,6.10
2022-08-18T21:12:52.600Z,5.80
2022-08-18T21:15:24.521Z,6.30
2022-08-18T21:18:24.154Z,6.37
2022-08-18T21:20:55.647Z,5.90
2022-08-18T21:23:39.478Z,6.53
2022-08-18T21:26:13.191Z,6.47
2022-08-18T21:28:45.527Z,5.70
2022-08-18T21:31:43.504Z,6.10
2022-08-18T21:34:43.026Z,6.23
2022-08-18T21:37:15.836Z,6.33
2022-08-18T21:39:58.433Z,6.10
2022-08-18T21:42:40.546Z,6.10
2022-08-18T21:45:19.923Z,6.57
2022-08-18T21:47:58.945Z,5.83
2022-08-18T21:50:30.362Z,5.50
2022-08-18T21:53:05.916Z,5.87
2022-08-18T21:56:01.521Z,6.13
2022-08-18T21:58:42.253Z,6.47
2022-08-18T22:01:23.708Z,5.90
2022-08-18T22:03:59.677Z,6.10
2022-08-18T22:06:41.421Z,5.77
2022-08-18T22:09:29.841Z,5.53
2022-08-18T22:12:46.792Z,6.00
2022-08-18T22:15:43.024Z,5.73
2022-08-18T22:18:19.139Z,6.37
2022-08-18T22:20:47.567Z,6.10
2022-08-18T22:23:32.956Z,6.13
2022-08-18T22:26:27.777Z,6.17
2022-08-18T22:29:06.680Z,6.40
2022-08-18T22:31:44.950Z,6.27
2022-08-18T22:34:28.046Z,6.47
2022-08-18T22:37:01.825Z,6.23
2022-08-18T22:39:33.666Z,5.80
2022-08-18T22:42:02.711Z,6.20
2022-08-18T22:44:30.619Z,5.90
2022-08-18T22:46:58.234Z,5.80
2022-08-18T22:49:26.228Z,6.40
2022-08-18T22:51:55.705Z,6.37
2022-08-18T22:54:25.412Z,5.60
2022-08-18T22:56:56.533Z,6.27
2022-08-18T22:59:26.999Z,6.03
2022-08-18T23:01:55.695Z,6.27
2022-08-18T23:04:25.582Z,5.70
2022-08-18T23:06:54.476Z,5.87
2022-08-18T23:09:27.183Z,6.47
2022-08-18T23:11:58.017Z,6.20
2022-08-18T23:14:25.859Z,5.80
2022-08-18T23:16:53.548Z,5.80
2022-08-18T23:19:22.255Z,5.57
2022-08-18T23:21:51.831Z,6.37
2022-08-18T23:24:20.643Z,6.67
2022-08-18T23:26:49.919Z,5.60
2022-08-18T23:29:19.882Z,5.90
2022-08-18T23:31:48.683Z,6.17
2022-08-18T23:34:18.897Z,6.27
2022-08-18T23:36:56.371Z,6.23
2022-08-18T23:39:26.214Z,5.97
2022-08-18T23:41:54.061Z,6.83
2022-08-18T23:44:27.335Z,6.07
2022-08-18T23:46:56.363Z,5.97
2022-08-18T23:49:24.238Z,6.33
2022-08-18T23:51:55.441Z,5.83
2022-08-18T23:54:27.902Z,6.40
2022-08-18T23:56:55.601Z,6.10
2022-08-18T23:59:25.937Z,6.10
